sensor_id;sensor_type;location;lat;lon;timestamp;P1;durP1;ratioP1;P2;durP2;ratioP2
31384;SDS011;18016;49.788;8.742;2023-04-07T00:01:24;21.90;;;13.70;;
31384;SDS011;18016;49.788;8.742;2023-04-07T00:03:50;22.25;;;14.23;;
31384;SDS011;18016;49.788;8.742;2023-04-07T00:06:15;20.35;;;13.48;;
31384;SDS011;18016;49.788;8.742;2023-04-07T00:08:40;21.70;;;14.10;;
31384;SDS011;18016;49.788;8.742;2023-04-07T00:11:06;21.07;;;14.50;;
31384;SDS011;18016;49.788;8.742;2023-04-07T00:13:32;21.33;;;13.65;;
31384;SDS011;18016;49.788;8.742;2023-04-07T00:15:57;19.77;;;13.45;;
31384;SDS011;18016;49.788;8.742;2023-04-07T00:18:23;21.27;;;12.00;;
31384;SDS011;18016;49.788;8.742;2023-04-07T00:20:48;19.93;;;13.13;;
31384;SDS011;18016;49.788;8.742;2023-04-07T00:23:13;18.20;;;12.53;;
31384;SDS011;18016;49.788;8.742;2023-04-07T00:25:38;21.42;;;13.18;;
31384;SDS011;18016;49.788;8.742;2023-04-07T00:28:04;19.98;;;13.90;;
31384;SDS011;18016;49.788;8.742;2023-04-07T00:30:29;19.45;;;13.57;;
31384;SDS011;18016;49.788;8.742;2023-04-07T00:32:54;20.17;;;14.25;;
31384;SDS011;18016;49.788;8.742;2023-04-07T00:35:20;17.35;;;12.50;;
31384;SDS011;18016;49.788;8.742;2023-04-07T00:37:46;20.05;;;13.88;;
31384;SDS011;18016;49.788;8.742;2023-04-07T00:40:11;17.13;;;12.33;;
31384;SDS011;18016;49.788;8.742;2023-04-07T00:42:36;23.83;;;14.07;;
31384;SDS011;18016;49.788;8.742;2023-04-07T00:45:01;21.20;;;13.20;;
31384;SDS011;18016;49.788;8.742;2023-04-07T00:47:26;20.30;;;13.95;;
31384;SDS011;18016;49.788;8.742;2023-04-07T00:49:52;20.63;;;13.87;;
31384;SDS011;18016;49.788;8.742;2023-04-07T00:52:17;19.47;;;13.30;;
31384;SDS011;18016;49.788;8.742;2023-04-07T00:54:43;19.67;;;13.40;;
31384;SDS011;18016;49.788;8.742;2023-04-07T00:57:08;23.90;;;13.13;;
31384;SDS011;18016;49.788;8.742;2023-04-07T00:59:33;19.20;;;12.30;;
31384;SDS011;18016;49.788;8.742;2023-04-07T01:04:26;22.33;;;14.33;;
31384;SDS011;18016;49.788;8.742;2023-04-07T01:06:54;24.05;;;14.80;;
31384;SDS011;18016;49.788;8.742;2023-04-07T01:09:33;21.60;;;14.60;;
31384;SDS011;18016;49.788;8.742;2023-04-07T01:12:04;19.92;;;12.98;;
31384;SDS011;18016;49.788;8.742;2023-04-07T01:14:32;18.02;;;12.55;;
31384;SDS011;18016;49.788;8.742;2023-04-07T01:16:57;18.23;;;13.20;;
31384;SDS011;18016;49.788;8.742;2023-04-07T01:22:11;17.33;;;12.77;;
31384;SDS011;18016;49.788;8.742;2023-04-07T01:24:47;18.75;;;12.40;;
31384;SDS011;18016;49.788;8.742;2023-04-07T01:27:33;19.77;;;12.88;;
31384;SDS011;18016;49.788;8.742;2023-04-07T01:30:00;19.35;;;12.07;;
31384;SDS011;18016;49.788;8.742;2023-04-07T01:32:27;18.58;;;13.30;;
31384;SDS011;18016;49.788;8.742;2023-04-07T01:34:53;24.20;;;13.00;;
31384;SDS011;18016;49.788;8.742;2023-04-07T01:37:19;25.77;;;14.63;;
31384;SDS011;18016;49.788;8.742;2023-04-07T01:39:45;18.83;;;12.52;;
31384;SDS011;18016;49.788;8.742;2023-04-07T01:42:10;19.63;;;13.15;;
31384;SDS011;18016;49.788;8.742;2023-04-07T01:44:36;23.52;;;14.00;;
31384;SDS011;18016;49.788;8.742;2023-04-07T01:47:02;26.65;;;14.93;;
31384;SDS011;18016;49.788;8.742;2023-04-07T01:49:27;20.45;;;14.23;;
31384;SDS011;18016;49.788;8.742;2023-04-07T01:51:54;20.38;;;13.40;;
31384;SDS011;18016;49.788;8.742;2023-04-07T01:54:19;18.92;;;13.45;;
31384;SDS011;18016;49.788;8.742;2023-04-07T01:56:44;26.05;;;14.98;;
31384;SDS011;18016;49.788;8.742;2023-04-07T01:59:09;22.23;;;13.57;;
31384;SDS011;18016;49.788;8.742;2023-04-07T02:01:35;21.00;;;12.52;;
31384;SDS011;18016;49.788;8.742;2023-04-07T02:06:27;19.05;;;12.43;;
31384;SDS011;18016;49.788;8.742;2023-04-07T02:08:54;16.08;;;12.30;;
31384;SDS011;18016;49.788;8.742;2023-04-07T02:11:21;17.98;;;12.77;;
31384;SDS011;18016;49.788;8.742;2023-04-07T02:13:48;17.30;;;12.65;;
31384;SDS011;18016;49.788;8.742;2023-04-07T02:16:16;20.23;;;13.30;;
31384;SDS011;18016;49.788;8.742;2023-04-07T02:18:41;18.45;;;13.43;;
31384;SDS011;18016;49.788;8.742;2023-04-07T02:21:07;20.80;;;14.07;;
31384;SDS011;18016;49.788;8.742;2023-04-07T02:23:36;17.90;;;11.80;;
31384;SDS011;18016;49.788;8.742;2023-04-07T02:26:01;23.42;;;13.20;;
31384;SDS011;18016;49.788;8.742;2023-04-07T02:28:26;18.73;;;12.13;;
31384;SDS011;18016;49.788;8.742;2023-04-07T02:30:51;17.40;;;12.57;;
31384;SDS011;18016;49.788;8.742;2023-04-07T02:33:16;17.57;;;12.30;;
31384;SDS011;18016;49.788;8.742;2023-04-07T02:35:42;18.10;;;12.10;;
31384;SDS011;18016;49.788;8.742;2023-04-07T02:38:07;20.10;;;12.70;;
31384;SDS011;18016;49.788;8.742;2023-04-07T02:40:32;17.73;;;12.77;;
31384;SDS011;18016;49.788;8.742;2023-04-07T02:42:57;19.33;;;12.73;;
31384;SDS011;18016;49.788;8.742;2023-04-07T02:45:22;19.48;;;13.02;;
31384;SDS011;18016;49.788;8.742;2023-04-07T02:47:48;18.93;;;13.17;;
31384;SDS011;18016;49.788;8.742;2023-04-07T02:50:13;19.93;;;13.03;;
31384;SDS011;18016;49.788;8.742;2023-04-07T02:52:38;17.93;;;11.77;;
31384;SDS011;18016;49.788;8.742;2023-04-07T02:55:03;18.80;;;12.87;;
31384;SDS011;18016;49.788;8.742;2023-04-07T02:57:28;20.05;;;12.35;;
31384;SDS011;18016;49.788;8.742;2023-04-07T02:59:54;19.30;;;12.57;;
31384;SDS011;18016;49.788;8.742;2023-04-07T03:02:21;19.20;;;12.80;;
31384;SDS011;18016;49.788;8.742;2023-04-07T03:04:47;24.13;;;14.30;;
31384;SDS011;18016;49.788;8.742;2023-04-07T03:07:12;24.60;;;13.17;;
31384;SDS011;18016;49.788;8.742;2023-04-07T03:09:37;20.10;;;13.03;;
31384;SDS011;18016;49.788;8.742;2023-04-07T03:12:02;22.07;;;13.60;;
31384;SDS011;18016;49.788;8.742;2023-04-07T03:14:27;22.42;;;12.70;;
31384;SDS011;18016;49.788;8.742;2023-04-07T03:16:52;20.58;;;12.85;;
31384;SDS011;18016;49.788;8.742;2023-04-07T03:19:18;18.97;;;11.40;;
31384;SDS011;18016;49.788;8.742;2023-04-07T03:21:43;16.75;;;11.75;;
31384;SDS011;18016;49.788;8.742;2023-04-07T03:24:08;17.00;;;11.30;;
31384;SDS011;18016;49.788;8.742;2023-04-07T03:26:33;16.70;;;12.30;;
31384;SDS011;18016;49.788;8.742;2023-04-07T03:28:59;17.02;;;11.27;;
31384;SDS011;18016;49.788;8.742;2023-04-07T03:31:24;16.77;;;11.40;;
31384;SDS011;18016;49.788;8.742;2023-04-07T03:33:49;15.90;;;11.00;;
31384;SDS011;18016;49.788;8.742;2023-04-07T03:36:15;16.13;;;11.43;;
31384;SDS011;18016;49.788;8.742;2023-04-07T03:38:41;17.48;;;11.77;;
31384;SDS011;18016;49.788;8.742;2023-04-07T03:41:06;16.60;;;11.63;;
31384;SDS011;18016;49.788;8.742;2023-04-07T03:43:31;15.77;;;10.95;;
31384;SDS011;18016;49.788;8.742;2023-04-07T03:45:57;18.50;;;11.77;;
31384;SDS011;18016;49.788;8.742;2023-04-07T03:48:22;20.73;;;11.90;;
31384;SDS011;18016;49.788;8.742;2023-04-07T03:50:47;17.83;;;12.03;;
31384;SDS011;18016;49.788;8.742;2023-04-07T03:53:12;18.20;;;11.38;;
31384;SDS011;18016;49.788;8.742;2023-04-07T03:55:40;19.73;;;13.30;;
31384;SDS011;18016;49.788;8.742;2023-04-07T03:58:05;17.85;;;11.27;;
31384;SDS011;18016;49.788;8.742;2023-04-07T04:00:30;21.80;;;14.00;;
31384;SDS011;18016;49.788;8.742;2023-04-07T04:02:57;22.40;;;14.20;;
31384;SDS011;18016;49.788;8.742;2023-04-07T04:05:22;20.90;;;13.23;;
31384;SDS011;18016;49.788;8.742;2023-04-07T04:07:47;19.43;;;12.17;;
31384;SDS011;18016;49.788;8.742;2023-04-07T04:10:15;18.23;;;12.77;;
31384;SDS011;18016;49.788;8.742;2023-04-07T04:12:40;20.63;;;12.57;;
31384;SDS011;18016;49.788;8.742;2023-04-07T04:15:06;19.45;;;12.73;;
31384;SDS011;18016;49.788;8.742;2023-04-07T04:17:31;21.50;;;12.55;;
31384;SDS011;18016;49.788;8.742;2023-04-07T04:19:56;19.00;;;11.60;;
31384;SDS011;18016;49.788;8.742;2023-04-07T04:22:21;22.47;;;11.93;;
31384;SDS011;18016;49.788;8.742;2023-04-07T04:24:47;21.43;;;12.70;;
31384;SDS011;18016;49.788;8.742;2023-04-07T04:27:12;18.27;;;11.60;;
31384;SDS011;18016;49.788;8.742;2023-04-07T04:29:37;21.70;;;12.23;;
31384;SDS011;18016;49.788;8.742;2023-04-07T04:32:02;17.40;;;11.93;;
31384;SDS011;18016;49.788;8.742;2023-04-07T04:34:27;15.17;;;11.40;;
31384;SDS011;18016;49.788;8.742;2023-04-07T04:36:52;21.00;;;12.38;;
31384;SDS011;18016;49.788;8.742;2023-04-07T04:39:18;17.77;;;12.07;;
31384;SDS011;18016;49.788;8.742;2023-04-07T04:41:43;17.47;;;11.57;;
31384;SDS011;18016;49.788;8.742;2023-04-07T04:44:09;18.83;;;11.55;;
31384;SDS011;18016;49.788;8.742;2023-04-07T04:46:34;17.05;;;11.38;;
31384;SDS011;18016;49.788;8.742;2023-04-07T04:49:00;16.83;;;11.52;;
31384;SDS011;18016;49.788;8.742;2023-04-07T04:51:25;16.77;;;12.00;;
31384;SDS011;18016;49.788;8.742;2023-04-07T04:53:51;19.58;;;12.40;;
31384;SDS011;18016;49.788;8.742;2023-04-07T04:56:16;20.07;;;11.53;;
31384;SDS011;18016;49.788;8.742;2023-04-07T04:58:41;16.90;;;12.27;;
31384;SDS011;18016;49.788;8.742;2023-04-07T05:01:10;18.95;;;12.07;;
31384;SDS011;18016;49.788;8.742;2023-04-07T05:03:35;17.67;;;12.50;;
31384;SDS011;18016;49.788;8.742;2023-04-07T05:06:00;16.57;;;12.33;;
31384;SDS011;18016;49.788;8.742;2023-04-07T05:08:25;18.50;;;12.77;;
31384;SDS011;18016;49.788;8.742;2023-04-07T05:10:51;20.52;;;12.02;;
31384;SDS011;18016;49.788;8.742;2023-04-07T05:13:16;19.60;;;12.27;;
31384;SDS011;18016;49.788;8.742;2023-04-07T05:15:41;22.07;;;12.30;;
31384;SDS011;18016;49.788;8.742;2023-04-07T05:18:06;19.00;;;13.20;;
31384;SDS011;18016;49.788;8.742;2023-04-07T05:20:31;18.10;;;12.77;;
31384;SDS011;18016;49.788;8.742;2023-04-07T05:22:57;38.40;;;14.60;;
31384;SDS011;18016;49.788;8.742;2023-04-07T05:25:22;23.37;;;13.53;;
31384;SDS011;18016;49.788;8.742;2023-04-07T05:27:47;44.33;;;32.43;;
31384;SDS011;18016;49.788;8.742;2023-04-07T05:30:12;76.93;;;55.93;;
31384;SDS011;18016;49.788;8.742;2023-04-07T05:32:38;118.25;;;80.95;;
31384;SDS011;18016;49.788;8.742;2023-04-07T05:35:03;187.37;;;118.80;;
31384;SDS011;18016;49.788;8.742;2023-04-07T05:37:28;68.55;;;43.35;;
31384;SDS011;18016;49.788;8.742;2023-04-07T05:39:53;241.90;;;144.73;;
31384;SDS011;18016;49.788;8.742;2023-04-07T05:42:18;253.50;;;151.77;;
31384;SDS011;18016;49.788;8.742;2023-04-07T05:44:43;279.77;;;164.20;;
31384;SDS011;18016;49.788;8.742;2023-04-07T05:47:09;551.70;;;329.60;;
31384;SDS011;18016;49.788;8.742;2023-04-07T05:49:35;344.35;;;192.15;;
31384;SDS011;18016;49.788;8.742;2023-04-07T05:52:00;189.60;;;104.60;;
31384;SDS011;18016;49.788;8.742;2023-04-07T05:54:27;133.02;;;78.45;;
31384;SDS011;18016;49.788;8.742;2023-04-07T05:56:52;74.32;;;44.88;;
31384;SDS011;18016;49.788;8.742;2023-04-07T05:59:17;26.83;;;17.47;;
31384;SDS011;18016;49.788;8.742;2023-04-07T06:01:43;42.43;;;23.70;;
31384;SDS011;18016;49.788;8.742;2023-04-07T06:04:08;28.27;;;18.73;;
31384;SDS011;18016;49.788;8.742;2023-04-07T06:06:33;85.70;;;48.50;;
31384;SDS011;18016;49.788;8.742;2023-04-07T06:08:58;39.67;;;24.50;;
31384;SDS011;18016;49.788;8.742;2023-04-07T06:11:24;51.25;;;29.27;;
31384;SDS011;18016;49.788;8.742;2023-04-07T06:13:50;26.40;;;16.30;;
31384;SDS011;18016;49.788;8.742;2023-04-07T06:16:15;65.43;;;33.70;;
31384;SDS011;18016;49.788;8.742;2023-04-07T06:18:40;23.47;;;14.07;;
31384;SDS011;18016;49.788;8.742;2023-04-07T06:21:06;31.77;;;16.98;;
31384;SDS011;18016;49.788;8.742;2023-04-07T06:23:31;19.02;;;10.40;;
31384;SDS011;18016;49.788;8.742;2023-04-07T06:25:56;199.68;;;97.95;;
31384;SDS011;18016;49.788;8.742;2023-04-07T06:28:22;18.90;;;13.07;;
31384;SDS011;18016;49.788;8.742;2023-04-07T06:30:47;15.85;;;10.15;;
31384;SDS011;18016;49.788;8.742;2023-04-07T06:33:12;16.73;;;11.38;;
31384;SDS011;18016;49.788;8.742;2023-04-07T06:35:41;18.30;;;12.68;;
31384;SDS011;18016;49.788;8.742;2023-04-07T06:38:06;12.63;;;9.93;;
31384;SDS011;18016;49.788;8.742;2023-04-07T06:40:32;15.23;;;10.02;;
31384;SDS011;18016;49.788;8.742;2023-04-07T06:42:57;14.15;;;10.35;;
31384;SDS011;18016;49.788;8.742;2023-04-07T06:45:22;14.68;;;10.40;;
31384;SDS011;18016;49.788;8.742;2023-04-07T06:47:47;16.57;;;9.67;;
31384;SDS011;18016;49.788;8.742;2023-04-07T06:50:13;49.73;;;34.00;;
31384;SDS011;18016;49.788;8.742;2023-04-07T06:52:38;20.90;;;12.77;;
31384;SDS011;18016;49.788;8.742;2023-04-07T06:55:03;28.93;;;18.17;;
31384;SDS011;18016;49.788;8.742;2023-04-07T06:57:28;25.02;;;15.73;;
31384;SDS011;18016;49.788;8.742;2023-04-07T06:59:54;18.90;;;11.38;;
31384;SDS011;18016;49.788;8.742;2023-04-07T07:02:19;17.20;;;11.02;;
31384;SDS011;18016;49.788;8.742;2023-04-07T07:04:44;18.48;;;10.88;;
31384;SDS011;18016;49.788;8.742;2023-04-07T07:07:09;15.10;;;10.33;;
31384;SDS011;18016;49.788;8.742;2023-04-07T07:09:35;13.93;;;9.80;;
31384;SDS011;18016;49.788;8.742;2023-04-07T07:12:00;17.53;;;9.67;;
31384;SDS011;18016;49.788;8.742;2023-04-07T07:14:26;17.15;;;10.30;;
31384;SDS011;18016;49.788;8.742;2023-04-07T07:16:51;16.58;;;10.10;;
31384;SDS011;18016;49.788;8.742;2023-04-07T07:19:16;16.90;;;10.57;;
31384;SDS011;18016;49.788;8.742;2023-04-07T07:21:41;14.80;;;10.40;;
31384;SDS011;18016;49.788;8.742;2023-04-07T07:24:07;17.17;;;10.87;;
31384;SDS011;18016;49.788;8.742;2023-04-07T07:26:32;17.47;;;11.40;;
31384;SDS011;18016;49.788;8.742;2023-04-07T07:28:57;17.33;;;11.20;;
31384;SDS011;18016;49.788;8.742;2023-04-07T07:31:22;18.58;;;11.25;;
31384;SDS011;18016;49.788;8.742;2023-04-07T07:33:48;24.05;;;11.80;;
31384;SDS011;18016;49.788;8.742;2023-04-07T07:36:15;16.30;;;11.13;;
31384;SDS011;18016;49.788;8.742;2023-04-07T07:38:40;23.73;;;11.47;;
31384;SDS011;18016;49.788;8.742;2023-04-07T07:41:06;18.45;;;11.70;;
31384;SDS011;18016;49.788;8.742;2023-04-07T07:43:31;18.42;;;12.32;;
31384;SDS011;18016;49.788;8.742;2023-04-07T07:45:56;17.45;;;11.65;;
31384;SDS011;18016;49.788;8.742;2023-04-07T07:48:22;18.33;;;11.10;;
31384;SDS011;18016;49.788;8.742;2023-04-07T07:50:47;19.87;;;10.90;;
31384;SDS011;18016;49.788;8.742;2023-04-07T07:53:13;16.15;;;11.73;;
31384;SDS011;18016;49.788;8.742;2023-04-07T07:55:38;19.65;;;11.77;;
31384;SDS011;18016;49.788;8.742;2023-04-07T07:58:03;19.83;;;11.53;;
31384;SDS011;18016;49.788;8.742;2023-04-07T08:00:28;21.67;;;11.53;;
31384;SDS011;18016;49.788;8.742;2023-04-07T08:02:53;19.90;;;12.33;;
31384;SDS011;18016;49.788;8.742;2023-04-07T08:05:19;21.35;;;12.15;;
31384;SDS011;18016;49.788;8.742;2023-04-07T08:07:44;15.55;;;10.52;;
31384;SDS011;18016;49.788;8.742;2023-04-07T08:10:10;23.88;;;12.00;;
31384;SDS011;18016;49.788;8.742;2023-04-07T08:12:36;17.75;;;11.95;;
31384;SDS011;18016;49.788;8.742;2023-04-07T08:15:01;22.95;;;12.52;;
31384;SDS011;18016;49.788;8.742;2023-04-07T08:17:26;19.05;;;11.75;;
31384;SDS011;18016;49.788;8.742;2023-04-07T08:19:51;16.33;;;11.90;;
31384;SDS011;18016;49.788;8.742;2023-04-07T08:22:17;16.57;;;10.90;;
31384;SDS011;18016;49.788;8.742;2023-04-07T08:24:44;18.42;;;11.50;;
31384;SDS011;18016;49.788;8.742;2023-04-07T08:27:10;16.30;;;10.90;;
31384;SDS011;18016;49.788;8.742;2023-04-07T08:29:35;19.13;;;11.00;;
31384;SDS011;18016;49.788;8.742;2023-04-07T08:32:00;18.37;;;11.33;;
31384;SDS011;18016;49.788;8.742;2023-04-07T08:34:26;19.97;;;11.47;;
31384;SDS011;18016;49.788;8.742;2023-04-07T08:36:51;18.52;;;11.43;;
31384;SDS011;18016;49.788;8.742;2023-04-07T08:39:16;21.87;;;11.63;;
31384;SDS011;18016;49.788;8.742;2023-04-07T08:41:41;20.48;;;10.45;;
31384;SDS011;18016;49.788;8.742;2023-04-07T08:44:09;21.80;;;11.82;;
31384;SDS011;18016;49.788;8.742;2023-04-07T08:46:34;15.50;;;10.45;;
31384;SDS011;18016;49.788;8.742;2023-04-07T08:49:00;14.48;;;10.82;;
31384;SDS011;18016;49.788;8.742;2023-04-07T08:51:30;17.55;;;11.48;;
31384;SDS011;18016;49.788;8.742;2023-04-07T08:54:05;19.48;;;11.55;;
31384;SDS011;18016;49.788;8.742;2023-04-07T08:56:31;18.10;;;10.57;;
31384;SDS011;18016;49.788;8.742;2023-04-07T08:58:57;14.52;;;10.50;;
31384;SDS011;18016;49.788;8.742;2023-04-07T09:01:22;16.75;;;10.82;;
31384;SDS011;18016;49.788;8.742;2023-04-07T09:03:48;14.40;;;10.48;;
31384;SDS011;18016;49.788;8.742;2023-04-07T09:06:14;16.48;;;9.90;;
31384;SDS011;18016;49.788;8.742;2023-04-07T09:08:39;14.35;;;10.52;;
31384;SDS011;18016;49.788;8.742;2023-04-07T09:11:04;17.17;;;11.18;;
31384;SDS011;18016;49.788;8.742;2023-04-07T09:13:30;18.83;;;10.85;;
31384;SDS011;18016;49.788;8.742;2023-04-07T09:15:58;15.32;;;10.77;;
31384;SDS011;18016;49.788;8.742;2023-04-07T09:18:26;14.60;;;10.38;;
31384;SDS011;18016;49.788;8.742;2023-04-07T09:20:59;12.82;;;10.45;;
31384;SDS011;18016;49.788;8.742;2023-04-07T09:23:28;16.42;;;10.90;;
31384;SDS011;18016;49.788;8.742;2023-04-07T09:25:54;18.70;;;11.85;;
31384;SDS011;18016;49.788;8.742;2023-04-07T09:28:19;16.50;;;10.77;;
31384;SDS011;18016;49.788;8.742;2023-04-07T09:30:53;19.48;;;11.15;;
31384;SDS011;18016;49.788;8.742;2023-04-07T09:33:25;14.88;;;11.00;;
31384;SDS011;18016;49.788;8.742;2023-04-07T09:35:51;16.65;;;10.77;;
31384;SDS011;18016;49.788;8.742;2023-04-07T09:38:19;16.80;;;10.95;;
31384;SDS011;18016;49.788;8.742;2023-04-07T09:40:44;20.10;;;11.00;;
31384;SDS011;18016;49.788;8.742;2023-04-07T09:43:16;17.77;;;11.53;;
31384;SDS011;18016;49.788;8.742;2023-04-07T09:45:41;15.63;;;11.85;;
31384;SDS011;18016;49.788;8.742;2023-04-07T09:48:07;17.27;;;10.90;;
31384;SDS011;18016;49.788;8.742;2023-04-07T09:50:35;17.30;;;12.18;;
31384;SDS011;18016;49.788;8.742;2023-04-07T09:53:01;15.10;;;11.18;;
31384;SDS011;18016;49.788;8.742;2023-04-07T09:55:27;15.65;;;10.40;;
31384;SDS011;18016;49.788;8.742;2023-04-07T09:57:53;15.15;;;9.70;;
31384;SDS011;18016;49.788;8.742;2023-04-07T10:00:21;19.63;;;12.23;;
31384;SDS011;18016;49.788;8.742;2023-04-07T10:02:47;16.17;;;10.60;;
31384;SDS011;18016;49.788;8.742;2023-04-07T10:05:13;15.85;;;10.32;;
31384;SDS011;18016;49.788;8.742;2023-04-07T10:07:39;12.73;;;9.35;;
31384;SDS011;18016;49.788;8.742;2023-04-07T10:10:05;13.57;;;9.35;;
31384;SDS011;18016;49.788;8.742;2023-04-07T10:12:32;11.60;;;7.55;;
31384;SDS011;18016;49.788;8.742;2023-04-07T10:14:58;12.30;;;7.40;;
31384;SDS011;18016;49.788;8.742;2023-04-07T10:17:24;13.07;;;9.07;;
31384;SDS011;18016;49.788;8.742;2023-04-07T10:19:50;13.13;;;9.80;;
31384;SDS011;18016;49.788;8.742;2023-04-07T10:22:16;10.18;;;7.57;;
31384;SDS011;18016;49.788;8.742;2023-04-07T10:27:28;8.52;;;6.57;;
31384;SDS011;18016;49.788;8.742;2023-04-07T10:29:55;8.75;;;6.40;;
31384;SDS011;18016;49.788;8.742;2023-04-07T10:32:22;8.70;;;7.07;;
31384;SDS011;18016;49.788;8.742;2023-04-07T10:37:17;12.10;;;7.13;;
31384;SDS011;18016;49.788;8.742;2023-04-07T10:39:45;8.43;;;6.55;;
31384;SDS011;18016;49.788;8.742;2023-04-07T10:43:11;9.88;;;7.00;;
31384;SDS011;18016;49.788;8.742;2023-04-07T10:45:05;12.55;;;8.35;;
31384;SDS011;18016;49.788;8.742;2023-04-07T10:47:31;8.52;;;6.97;;
31384;SDS011;18016;49.788;8.742;2023-04-07T10:50:41;10.65;;;7.22;;
31384;SDS011;18016;49.788;8.742;2023-04-07T10:52:42;14.68;;;9.40;;
31384;SDS011;18016;49.788;8.742;2023-04-07T11:03:33;10.13;;;7.13;;
31384;SDS011;18016;49.788;8.742;2023-04-07T11:06:08;12.55;;;9.70;;
31384;SDS011;18016;49.788;8.742;2023-04-07T11:08:38;20.27;;;13.27;;
31384;SDS011;18016;49.788;8.742;2023-04-07T11:11:04;14.35;;;9.75;;
31384;SDS011;18016;49.788;8.742;2023-04-07T11:13:42;11.25;;;8.02;;
31384;SDS011;18016;49.788;8.742;2023-04-07T11:16:08;6.60;;;5.90;;
31384;SDS011;18016;49.788;8.742;2023-04-07T11:18:34;7.63;;;6.43;;
31384;SDS011;18016;49.788;8.742;2023-04-07T11:20:59;8.43;;;5.70;;
31384;SDS011;18016;49.788;8.742;2023-04-07T11:23:24;8.02;;;5.63;;
31384;SDS011;18016;49.788;8.742;2023-04-07T11:25:51;7.95;;;5.80;;
31384;SDS011;18016;49.788;8.742;2023-04-07T11:28:17;7.10;;;5.85;;
31384;SDS011;18016;49.788;8.742;2023-04-07T11:30:49;7.63;;;6.18;;
31384;SDS011;18016;49.788;8.742;2023-04-07T11:33:22;10.23;;;6.63;;
31384;SDS011;18016;49.788;8.742;2023-04-07T11:35:48;8.77;;;6.72;;
31384;SDS011;18016;49.788;8.742;2023-04-07T11:38:13;12.70;;;7.18;;
31384;SDS011;18016;49.788;8.742;2023-04-07T11:40:40;10.95;;;7.50;;
31384;SDS011;18016;49.788;8.742;2023-04-07T11:43:14;14.13;;;7.80;;
31384;SDS011;18016;49.788;8.742;2023-04-07T11:45:39;11.13;;;8.13;;
31384;SDS011;18016;49.788;8.742;2023-04-07T11:48:24;11.98;;;8.43;;
31384;SDS011;18016;49.788;8.742;2023-04-07T11:50:49;13.20;;;7.97;;
31384;SDS011;18016;49.788;8.742;2023-04-07T11:53:23;10.50;;;7.38;;
31384;SDS011;18016;49.788;8.742;2023-04-07T11:55:48;12.70;;;8.98;;
31384;SDS011;18016;49.788;8.742;2023-04-07T11:58:13;13.10;;;9.27;;
31384;SDS011;18016;49.788;8.742;2023-04-07T12:00:55;14.85;;;10.02;;
31384;SDS011;18016;49.788;8.742;2023-04-07T12:03:21;14.57;;;10.40;;
31384;SDS011;18016;49.788;8.742;2023-04-07T12:05:46;13.77;;;9.35;;
31384;SDS011;18016;49.788;8.742;2023-04-07T12:08:12;16.25;;;10.85;;
31384;SDS011;18016;49.788;8.742;2023-04-07T12:10:38;13.52;;;9.65;;
31384;SDS011;18016;49.788;8.742;2023-04-07T12:13:05;12.07;;;9.55;;
31384;SDS011;18016;49.788;8.742;2023-04-07T12:15:30;13.27;;;9.90;;
31384;SDS011;18016;49.788;8.742;2023-04-07T12:17:56;14.85;;;9.52;;
31384;SDS011;18016;49.788;8.742;2023-04-07T12:20:21;10.80;;;8.55;;
31384;SDS011;18016;49.788;8.742;2023-04-07T12:22:46;11.93;;;8.43;;
31384;SDS011;18016;49.788;8.742;2023-04-07T12:25:11;9.68;;;7.70;;
31384;SDS011;18016;49.788;8.742;2023-04-07T12:27:36;9.73;;;8.13;;
31384;SDS011;18016;49.788;8.742;2023-04-07T12:30:02;13.27;;;8.10;;
31384;SDS011;18016;49.788;8.742;2023-04-07T12:32:28;9.30;;;7.50;;
31384;SDS011;18016;49.788;8.742;2023-04-07T12:34:53;12.90;;;9.05;;
31384;SDS011;18016;49.788;8.742;2023-04-07T12:37:18;10.47;;;9.20;;
31384;SDS011;18016;49.788;8.742;2023-04-07T12:39:43;11.27;;;8.60;;
31384;SDS011;18016;49.788;8.742;2023-04-07T12:42:08;9.00;;;7.40;;
31384;SDS011;18016;49.788;8.742;2023-04-07T12:44:36;10.98;;;7.00;;
31384;SDS011;18016;49.788;8.742;2023-04-07T12:47:01;8.02;;;6.65;;
31384;SDS011;18016;49.788;8.742;2023-04-07T12:49:26;10.20;;;8.10;;
31384;SDS011;18016;49.788;8.742;2023-04-07T12:51:51;9.07;;;6.53;;
31384;SDS011;18016;49.788;8.742;2023-04-07T12:54:16;6.80;;;6.10;;
31384;SDS011;18016;49.788;8.742;2023-04-07T12:56:42;6.07;;;5.25;;
31384;SDS011;18016;49.788;8.742;2023-04-07T12:59:07;6.63;;;5.93;;
31384;SDS011;18016;49.788;8.742;2023-04-07T13:01:33;9.00;;;6.15;;
31384;SDS011;18016;49.788;8.742;2023-04-07T13:03:59;6.97;;;4.93;;
31384;SDS011;18016;49.788;8.742;2023-04-07T13:06:24;7.57;;;5.38;;
31384;SDS011;18016;49.788;8.742;2023-04-07T13:08:49;6.87;;;5.90;;
31384;SDS011;18016;49.788;8.742;2023-04-07T13:11:15;5.97;;;5.38;;
31384;SDS011;18016;49.788;8.742;2023-04-07T13:13:40;6.10;;;5.50;;
31384;SDS011;18016;49.788;8.742;2023-04-07T13:16:06;6.43;;;5.77;;
31384;SDS011;18016;49.788;8.742;2023-04-07T13:18:31;6.45;;;5.78;;
31384;SDS011;18016;49.788;8.742;2023-04-07T13:20:57;7.80;;;7.00;;
31384;SDS011;18016;49.788;8.742;2023-04-07T13:23:22;8.17;;;7.13;;
31384;SDS011;18016;49.788;8.742;2023-04-07T13:25:47;7.37;;;6.60;;
31384;SDS011;18016;49.788;8.742;2023-04-07T13:28:12;8.02;;;7.13;;
31384;SDS011;18016;49.788;8.742;2023-04-07T13:30:38;7.93;;;6.57;;
31384;SDS011;18016;49.788;8.742;2023-04-07T13:33:03;7.78;;;6.97;;
31384;SDS011;18016;49.788;8.742;2023-04-07T13:35:28;9.63;;;8.27;;
31384;SDS011;18016;49.788;8.742;2023-04-07T13:37:59;11.20;;;8.80;;
31384;SDS011;18016;49.788;8.742;2023-04-07T13:40:24;7.20;;;6.10;;
31384;SDS011;18016;49.788;8.742;2023-04-07T13:42:49;6.95;;;5.85;;
31384;SDS011;18016;49.788;8.742;2023-04-07T13:45:15;6.95;;;5.47;;
31384;SDS011;18016;49.788;8.742;2023-04-07T13:47:40;8.43;;;6.07;;
31384;SDS011;18016;49.788;8.742;2023-04-07T13:50:05;6.73;;;5.60;;
31384;SDS011;18016;49.788;8.742;2023-04-07T13:52:30;6.97;;;5.80;;
31384;SDS011;18016;49.788;8.742;2023-04-07T13:54:59;5.82;;;5.22;;
31384;SDS011;18016;49.788;8.742;2023-04-07T13:57:24;6.57;;;5.50;;
31384;SDS011;18016;49.788;8.742;2023-04-07T13:59:49;7.72;;;5.75;;
31384;SDS011;18016;49.788;8.742;2023-04-07T14:02:18;7.35;;;6.53;;
31384;SDS011;18016;49.788;8.742;2023-04-07T14:04:43;7.32;;;6.40;;
31384;SDS011;18016;49.788;8.742;2023-04-07T14:07:09;7.40;;;6.30;;
31384;SDS011;18016;49.788;8.742;2023-04-07T14:09:34;7.07;;;5.97;;
31384;SDS011;18016;49.788;8.742;2023-04-07T14:11:59;9.47;;;7.40;;
31384;SDS011;18016;49.788;8.742;2023-04-07T14:14:24;8.87;;;7.03;;
31384;SDS011;18016;49.788;8.742;2023-04-07T14:16:49;9.43;;;7.40;;
31384;SDS011;18016;49.788;8.742;2023-04-07T14:19:17;9.48;;;6.95;;
31384;SDS011;18016;49.788;8.742;2023-04-07T14:21:42;10.63;;;8.27;;
31384;SDS011;18016;49.788;8.742;2023-04-07T14:24:07;10.20;;;8.73;;
31384;SDS011;18016;49.788;8.742;2023-04-07T14:26:33;14.30;;;10.23;;
31384;SDS011;18016;49.788;8.742;2023-04-07T14:28:58;12.17;;;9.00;;
31384;SDS011;18016;49.788;8.742;2023-04-07T14:31:23;11.77;;;8.60;;
31384;SDS011;18016;49.788;8.742;2023-04-07T14:33:48;14.07;;;11.87;;
31384;SDS011;18016;49.788;8.742;2023-04-07T14:36:14;13.50;;;11.20;;
31384;SDS011;18016;49.788;8.742;2023-04-07T14:38:40;13.93;;;11.50;;
31384;SDS011;18016;49.788;8.742;2023-04-07T14:41:05;13.30;;;11.10;;